sensor_id;sensor_type;location;lat;lon;timestamp;temperature;humidity
24904;DHT22;12960;50.322;11.124;2022-07-04T00:00:57;18.60;99.90
24904;DHT22;12960;50.322;11.124;2022-07-04T00:01:58;18.70;99.90
24904;DHT22;12960;50.322;11.124;2022-07-04T00:02:59;18.80;57.10
24904;DHT22;12960;50.322;11.124;2022-07-04T00:04:01;18.80;1.00
24904;DHT22;12960;50.322;11.124;2022-07-04T00:05:03;18.80;36.10
24904;DHT22;12960;50.322;11.124;2022-07-04T00:06:04;18.80;1.00
24904;DHT22;12960;50.322;11.124;2022-07-04T00:07:08;18.90;1.00
24904;DHT22;12960;50.322;11.124;2022-07-04T00:08:08;18.80;1.00
24904;DHT22;12960;50.322;11.124;2022-07-04T00:09:10;18.70;99.90
24904;DHT22;12960;50.322;11.124;2022-07-04T00:10:16;18.60;96.60
24904;DHT22;12960;50.322;11.124;2022-07-04T00:11:17;18.30;99.90
24904;DHT22;12960;50.322;11.124;2022-07-04T00:12:18;18.10;1.00
24904;DHT22;12960;50.322;11.124;2022-07-04T00:13:19;17.90;99.90
24904;DHT22;12960;50.322;11.124;2022-07-04T00:14:23;17.70;1.00
24904;DHT22;12960;50.322;11.124;2022-07-04T00:15:25;17.70;91.50
24904;DHT22;12960;50.322;11.124;2022-07-04T00:16:26;17.60;99.90
24904;DHT22;12960;50.322;11.124;2022-07-04T00:17:27;17.60;99.90
24904;DHT22;12960;50.322;11.124;2022-07-04T00:18:28;17.60;99.90
24904;DHT22;12960;50.322;11.124;2022-07-04T00:19:29;17.50;99.90
24904;DHT22;12960;50.322;11.124;2022-07-04T00:20:30;17.50;99.90
24904;DHT22;12960;50.322;11.124;2022-07-04T00:21:31;17.50;1.00
24904;DHT22;12960;50.322;11.124;2022-07-04T00:22:32;17.60;1.00
24904;DHT22;12960;50.322;11.124;2022-07-04T00:23:36;17.60;1.00
24904;DHT22;12960;50.322;11.124;2022-07-04T00:24:40;17.60;99.90
24904;DHT22;12960;50.322;11.124;2022-07-04T00:25:41;17.80;99.90
24904;DHT22;12960;50.322;11.124;2022-07-04T00:26:51;17.80;1.00
24904;DHT22;12960;50.322;11.124;2022-07-04T00:27:52;17.70;71.20
24904;DHT22;12960;50.322;11.124;2022-07-04T00:28:53;17.70;99.90
24904;DHT22;12960;50.322;11.124;2022-07-04T00:29:55;17.70;1.00
24904;DHT22;12960;50.322;11.124;2022-07-04T00:30:56;17.90;99.90
24904;DHT22;12960;50.322;11.124;2022-07-04T00:32:03;17.90;1.00
24904;DHT22;12960;50.322;11.124;2022-07-04T00:33:04;18.00;1.00
24904;DHT22;12960;50.322;11.124;2022-07-04T00:34:06;18.20;99.90
24904;DHT22;12960;50.322;11.124;2022-07-04T00:35:07;18.30;99.90
24904;DHT22;12960;50.322;11.124;2022-07-04T00:36:12;18.30;99.90
24904;DHT22;12960;50.322;11.124;2022-07-04T00:37:13;18.30;99.90
24904;DHT22;12960;50.322;11.124;2022-07-04T00:38:14;18.10;99.90
24904;DHT22;12960;50.322;11.124;2022-07-04T00:39:15;17.90;1.00
24904;DHT22;12960;50.322;11.124;2022-07-04T00:40:16;17.80;99.90
24904;DHT22;12960;50.322;11.124;2022-07-04T00:41:17;17.70;99.90
24904;DHT22;12960;50.322;11.124;2022-07-04T00:42:18;17.70;99.90
24904;DHT22;12960;50.322;11.124;2022-07-04T00:43:24;17.60;1.00
24904;DHT22;12960;50.322;11.124;2022-07-04T00:44:25;17.60;99.90
24904;DHT22;12960;50.322;11.124;2022-07-04T00:45:26;17.60;1.00
24904;DHT22;12960;50.322;11.124;2022-07-04T00:46:33;17.50;99.90
24904;DHT22;12960;50.322;11.124;2022-07-04T00:47:35;17.30;99.90
24904;DHT22;12960;50.322;11.124;2022-07-04T00:48:36;17.20;1.00
24904;DHT22;12960;50.322;11.124;2022-07-04T00:49:43;17.20;99.90
24904;DHT22;12960;50.322;11.124;2022-07-04T00:50:48;17.30;1.00
24904;DHT22;12960;50.322;11.124;2022-07-04T00:51:49;17.30;1.00
24904;DHT22;12960;50.322;11.124;2022-07-04T00:52:52;17.30;99.90
24904;DHT22;12960;50.322;11.124;2022-07-04T00:53:54;17.30;1.00
24904;DHT22;12960;50.322;11.124;2022-07-04T00:54:55;17.20;99.90
24904;DHT22;12960;50.322;11.124;2022-07-04T00:55:56;17.20;99.90
24904;DHT22;12960;50.322;11.124;2022-07-04T00:57:04;17.50;99.90
24904;DHT22;12960;50.322;11.124;2022-07-04T00:58:06;17.50;1.00
24904;DHT22;12960;50.322;11.124;2022-07-04T00:59:13;17.30;99.90
24904;DHT22;12960;50.322;11.124;2022-07-04T01:00:15;17.20;1.00
24904;DHT22;12960;50.322;11.124;2022-07-04T01:01:17;17.00;99.90
24904;DHT22;12960;50.322;11.124;2022-07-04T01:02:18;16.90;1.00
24904;DHT22;12960;50.322;11.124;2022-07-04T01:03:19;16.70;20.60
24904;DHT22;12960;50.322;11.124;2022-07-04T01:04:20;16.70;52.50
24904;DHT22;12960;50.322;11.124;2022-07-04T01:05:21;16.70;99.90
24904;DHT22;12960;50.322;11.124;2022-07-04T01:06:22;16.60;99.90
24904;DHT22;12960;50.322;11.124;2022-07-04T01:07:23;16.60;99.90
24904;DHT22;12960;50.322;11.124;2022-07-04T01:08:24;16.40;99.90
24904;DHT22;12960;50.322;11.124;2022-07-04T01:09:26;16.40;1.00
24904;DHT22;12960;50.322;11.124;2022-07-04T01:10:29;16.30;1.00
24904;DHT22;12960;50.322;11.124;2022-07-04T01:11:30;16.30;1.00
24904;DHT22;12960;50.322;11.124;2022-07-04T01:12:31;16.20;10.50
24904;DHT22;12960;50.322;11.124;2022-07-04T01:13:33;16.10;57.90
24904;DHT22;12960;50.322;11.124;2022-07-04T01:14:37;16.10;99.90
24904;DHT22;12960;50.322;11.124;2022-07-04T01:15:38;16.10;99.90
24904;DHT22;12960;50.322;11.124;2022-07-04T01:16:39;16.00;99.90
24904;DHT22;12960;50.322;11.124;2022-07-04T01:17:40;15.90;99.90
24904;DHT22;12960;50.322;11.124;2022-07-04T01:18:41;15.90;99.90
24904;DHT22;12960;50.322;11.124;2022-07-04T01:19:42;15.80;99.90
24904;DHT22;12960;50.322;11.124;2022-07-04T01:20:44;15.70;99.90
24904;DHT22;12960;50.322;11.124;2022-07-04T01:21:45;15.60;99.90
24904;DHT22;12960;50.322;11.124;2022-07-04T01:22:46;15.60;99.90
24904;DHT22;12960;50.322;11.124;2022-07-04T01:23:47;15.60;99.90
24904;DHT22;12960;50.322;11.124;2022-07-04T01:24:49;15.50;99.90
24904;DHT22;12960;50.322;11.124;2022-07-04T01:25:53;15.50;99.90
24904;DHT22;12960;50.322;11.124;2022-07-04T01:26:55;15.50;99.90
24904;DHT22;12960;50.322;11.124;2022-07-04T01:27:56;15.40;99.90
24904;DHT22;12960;50.322;11.124;2022-07-04T01:28:57;15.50;99.90
24904;DHT22;12960;50.322;11.124;2022-07-04T01:29:58;15.40;99.90
24904;DHT22;12960;50.322;11.124;2022-07-04T01:30:59;15.40;99.90
24904;DHT22;12960;50.322;11.124;2022-07-04T01:32:09;15.60;99.90
24904;DHT22;12960;50.322;11.124;2022-07-04T01:33:10;15.50;99.90
24904;DHT22;12960;50.322;11.124;2022-07-04T01:34:14;15.60;99.90
24904;DHT22;12960;50.322;11.124;2022-07-04T01:35:19;15.60;99.90
24904;DHT22;12960;50.322;11.124;2022-07-04T01:36:20;15.60;99.90
24904;DHT22;12960;50.322;11.124;2022-07-04T01:37:21;15.60;99.90
24904;DHT22;12960;50.322;11.124;2022-07-04T01:38:22;15.60;99.90
24904;DHT22;12960;50.322;11.124;2022-07-04T01:39:24;15.70;99.90
24904;DHT22;12960;50.322;11.124;2022-07-04T01:40:25;15.80;99.90
24904;DHT22;12960;50.322;11.124;2022-07-04T01:41:26;15.80;56.30
24904;DHT22;12960;50.322;11.124;2022-07-04T01:42:27;15.80;99.90
24904;DHT22;12960;50.322;11.124;2022-07-04T01:43:28;15.80;93.80
24904;DHT22;12960;50.322;11.124;2022-07-04T01:44:29;15.80;81.40
24904;DHT22;12960;50.322;11.124;2022-07-04T01:45:30;15.80;12.90
24904;DHT22;12960;50.322;11.124;2022-07-04T01:46:34;15.80;15.90
24904;DHT22;12960;50.322;11.124;2022-07-04T01:47:37;15.80;21.30
24904;DHT22;12960;50.322;11.124;2022-07-04T01:48:40;15.90;10.50
24904;DHT22;12960;50.322;11.124;2022-07-04T01:49:41;15.90;1.00
24904;DHT22;12960;50.322;11.124;2022-07-04T01:50:42;15.80;4.10
24904;DHT22;12960;50.322;11.124;2022-07-04T01:51:49;15.80;12.30
24904;DHT22;12960;50.322;11.124;2022-07-04T01:52:50;15.80;41.80
24904;DHT22;12960;50.322;11.124;2022-07-04T01:53:51;15.90;83.40
24904;DHT22;12960;50.322;11.124;2022-07-04T01:54:52;15.90;40.70
24904;DHT22;12960;50.322;11.124;2022-07-04T01:55:53;15.80;34.60
24904;DHT22;12960;50.322;11.124;2022-07-04T01:56:54;15.80;99.90
24904;DHT22;12960;50.322;11.124;2022-07-04T01:57:55;15.90;95.00
24904;DHT22;12960;50.322;11.124;2022-07-04T01:58:57;15.90;99.90
24904;DHT22;12960;50.322;11.124;2022-07-04T02:00:00;15.80;87.40
24904;DHT22;12960;50.322;11.124;2022-07-04T02:01:19;15.70;73.40
24904;DHT22;12960;50.322;11.124;2022-07-04T02:02:33;15.80;64.10
24904;DHT22;12960;50.322;11.124;2022-07-04T02:03:34;15.90;99.90
24904;DHT22;12960;50.322;11.124;2022-07-04T02:04:41;15.80;99.90
24904;DHT22;12960;50.322;11.124;2022-07-04T02:05:43;15.80;66.50
24904;DHT22;12960;50.322;11.124;2022-07-04T02:06:44;15.80;18.50
24904;DHT22;12960;50.322;11.124;2022-07-04T02:07:49;15.80;60.60
24904;DHT22;12960;50.322;11.124;2022-07-04T02:08:50;15.80;99.90
24904;DHT22;12960;50.322;11.124;2022-07-04T02:10:12;15.80;59.70
24904;DHT22;12960;50.322;11.124;2022-07-04T02:11:13;15.80;99.90
24904;DHT22;12960;50.322;11.124;2022-07-04T02:12:15;15.90;74.90
24904;DHT22;12960;50.322;11.124;2022-07-04T02:13:35;15.90;88.70
24904;DHT22;12960;50.322;11.124;2022-07-04T02:14:36;16.00;1.00
24904;DHT22;12960;50.322;11.124;2022-07-04T02:15:38;16.00;1.00
24904;DHT22;12960;50.322;11.124;2022-07-04T02:16:41;16.00;1.00
24904;DHT22;12960;50.322;11.124;2022-07-04T02:17:42;16.00;1.00
24904;DHT22;12960;50.322;11.124;2022-07-04T02:18:43;16.00;1.00
24904;DHT22;12960;50.322;11.124;2022-07-04T02:19:44;15.90;1.00
24904;DHT22;12960;50.322;11.124;2022-07-04T02:20:48;15.90;1.00
24904;DHT22;12960;50.322;11.124;2022-07-04T02:21:52;15.90;1.00
24904;DHT22;12960;50.322;11.124;2022-07-04T02:22:53;15.90;1.00
24904;DHT22;12960;50.322;11.124;2022-07-04T02:23:57;15.90;1.00
24904;DHT22;12960;50.322;11.124;2022-07-04T02:24:58;16.00;1.00
24904;DHT22;12960;50.322;11.124;2022-07-04T02:25:59;16.20;99.90
24904;DHT22;12960;50.322;11.124;2022-07-04T02:27:00;16.20;1.00
24904;DHT22;12960;50.322;11.124;2022-07-04T02:28:01;16.20;1.00
24904;DHT22;12960;50.322;11.124;2022-07-04T02:29:08;16.10;1.00
24904;DHT22;12960;50.322;11.124;2022-07-04T02:30:10;16.10;1.00
24904;DHT22;12960;50.322;11.124;2022-07-04T02:31:15;16.10;1.00
24904;DHT22;12960;50.322;11.124;2022-07-04T02:32:16;16.00;1.00
24904;DHT22;12960;50.322;11.124;2022-07-04T02:33:20;16.00;1.00
24904;DHT22;12960;50.322;11.124;2022-07-04T02:34:21;15.90;1.00
24904;DHT22;12960;50.322;11.124;2022-07-04T02:35:22;16.00;1.00
24904;DHT22;12960;50.322;11.124;2022-07-04T02:36:25;16.00;1.00
24904;DHT22;12960;50.322;11.124;2022-07-04T02:37:26;15.90;1.00
24904;DHT22;12960;50.322;11.124;2022-07-04T02:38:30;15.80;91.80
24904;DHT22;12960;50.322;11.124;2022-07-04T02:39:32;15.70;99.90
24904;DHT22;12960;50.322;11.124;2022-07-04T02:40:33;15.70;99.90
24904;DHT22;12960;50.322;11.124;2022-07-04T02:41:37;15.70;99.90
24904;DHT22;12960;50.322;11.124;2022-07-04T02:42:38;15.70;99.90
24904;DHT22;12960;50.322;11.124;2022-07-04T02:43:39;15.70;99.90
24904;DHT22;12960;50.322;11.124;2022-07-04T02:44:40;15.60;99.90
24904;DHT22;12960;50.322;11.124;2022-07-04T02:45:42;15.60;99.90
24904;DHT22;12960;50.322;11.124;2022-07-04T02:46:43;15.50;99.90
24904;DHT22;12960;50.322;11.124;2022-07-04T02:47:47;15.40;99.90
24904;DHT22;12960;50.322;11.124;2022-07-04T02:48:48;15.20;99.90
24904;DHT22;12960;50.322;11.124;2022-07-04T02:49:49;15.20;99.90
24904;DHT22;12960;50.322;11.124;2022-07-04T02:50:50;15.20;99.90
24904;DHT22;12960;50.322;11.124;2022-07-04T02:51:51;15.20;1.00
24904;DHT22;12960;50.322;11.124;2022-07-04T02:52:55;15.10;1.00
24904;DHT22;12960;50.322;11.124;2022-07-04T02:53:56;15.10;1.00
24904;DHT22;12960;50.322;11.124;2022-07-04T02:55:04;15.00;1.00
24904;DHT22;12960;50.322;11.124;2022-07-04T02:56:05;15.00;1.00
24904;DHT22;12960;50.322;11.124;2022-07-04T02:57:06;15.00;1.00
24904;DHT22;12960;50.322;11.124;2022-07-04T02:58:07;15.10;1.00
24904;DHT22;12960;50.322;11.124;2022-07-04T02:59:08;15.10;1.00
24904;DHT22;12960;50.322;11.124;2022-07-04T03:00:10;15.10;1.00
24904;DHT22;12960;50.322;11.124;2022-07-04T03:01:11;15.20;1.00
24904;DHT22;12960;50.322;11.124;2022-07-04T03:02:16;15.10;1.00
24904;DHT22;12960;50.322;11.124;2022-07-04T03:03:17;15.10;1.00
24904;DHT22;12960;50.322;11.124;2022-07-04T03:04:21;15.10;1.00
24904;DHT22;12960;50.322;11.124;2022-07-04T03:05:22;15.00;1.00
24904;DHT22;12960;50.322;11.124;2022-07-04T03:06:23;15.00;1.00
24904;DHT22;12960;50.322;11.124;2022-07-04T03:07:24;15.00;1.00
24904;DHT22;12960;50.322;11.124;2022-07-04T03:08:25;15.00;1.00
24904;DHT22;12960;50.322;11.124;2022-07-04T03:09:29;15.00;1.00
24904;DHT22;12960;50.322;11.124;2022-07-04T03:10:30;15.00;1.00
24904;DHT22;12960;50.322;11.124;2022-07-04T03:11:32;15.00;1.00
24904;DHT22;12960;50.322;11.124;2022-07-04T03:12:33;14.90;1.00
24904;DHT22;12960;50.322;11.124;2022-07-04T03:13:36;14.90;1.00
24904;DHT22;12960;50.322;11.124;2022-07-04T03:14:39;14.90;1.00
24904;DHT22;12960;50.322;11.124;2022-07-04T03:15:40;14.90;1.00
24904;DHT22;12960;50.322;11.124;2022-07-04T03:16:41;14.90;1.00
24904;DHT22;12960;50.322;11.124;2022-07-04T03:17:42;15.10;1.00
24904;DHT22;12960;50.322;11.124;2022-07-04T03:18:46;15.00;1.00
24904;DHT22;12960;50.322;11.124;2022-07-04T03:19:47;15.10;1.00
24904;DHT22;12960;50.322;11.124;2022-07-04T03:20:48;15.20;1.00
24904;DHT22;12960;50.322;11.124;2022-07-04T03:21:49;15.20;1.00
24904;DHT22;12960;50.322;11.124;2022-07-04T03:22:50;15.20;1.00
24904;DHT22;12960;50.322;11.124;2022-07-04T03:23:52;15.20;1.00
24904;DHT22;12960;50.322;11.124;2022-07-04T03:25:02;15.10;1.00
24904;DHT22;12960;50.322;11.124;2022-07-04T03:26:03;15.20;1.00
24904;DHT22;12960;50.322;11.124;2022-07-04T03:27:04;15.10;99.90
24904;DHT22;12960;50.322;11.124;2022-07-04T03:28:06;15.10;99.90
24904;DHT22;12960;50.322;11.124;2022-07-04T03:29:07;15.10;99.90
24904;DHT22;12960;50.322;11.124;2022-07-04T03:30:08;15.00;1.00
24904;DHT22;12960;50.322;11.124;2022-07-04T03:31:09;15.00;1.00
24904;DHT22;12960;50.322;11.124;2022-07-04T03:32:10;15.00;1.00
24904;DHT22;12960;50.322;11.124;2022-07-04T03:33:11;15.00;1.00
24904;DHT22;12960;50.322;11.124;2022-07-04T03:34:12;15.00;1.00
24904;DHT22;12960;50.322;11.124;2022-07-04T03:35:13;15.00;1.00
24904;DHT22;12960;50.322;11.124;2022-07-04T03:36:21;15.00;1.00
24904;DHT22;12960;50.322;11.124;2022-07-04T03:37:27;15.00;1.00
24904;DHT22;12960;50.322;11.124;2022-07-04T03:38:28;14.90;1.00
24904;DHT22;12960;50.322;11.124;2022-07-04T03:39:29;14.90;1.00
24904;DHT22;12960;50.322;11.124;2022-07-04T03:40:30;15.00;1.00
24904;DHT22;12960;50.322;11.124;2022-07-04T03:41:31;14.90;1.00
24904;DHT22;12960;50.322;11.124;2022-07-04T03:42:33;14.90;1.00
24904;DHT22;12960;50.322;11.124;2022-07-04T03:43:34;14.90;1.00
24904;DHT22;12960;50.322;11.124;2022-07-04T03:44:35;14.90;1.00
24904;DHT22;12960;50.322;11.124;2022-07-04T03:45:38;14.90;1.00
24904;DHT22;12960;50.322;11.124;2022-07-04T03:46:39;15.00;1.00
24904;DHT22;12960;50.322;11.124;2022-07-04T03:47:40;15.00;1.00
24904;DHT22;12960;50.322;11.124;2022-07-04T03:48:42;15.10;1.00
24904;DHT22;12960;50.322;11.124;2022-07-04T03:49:44;15.20;1.00
24904;DHT22;12960;50.322;11.124;2022-07-04T03:50:45;15.30;1.00
24904;DHT22;12960;50.322;11.124;2022-07-04T03:51:49;15.40;1.00
24904;DHT22;12960;50.322;11.124;2022-07-04T03:52:50;15.30;99.90
24904;DHT22;12960;50.322;11.124;2022-07-04T03:53:51;15.30;99.90
24904;DHT22;12960;50.322;11.124;2022-07-04T03:54:55;15.30;1.00
24904;DHT22;12960;50.322;11.124;2022-07-04T03:55:56;15.30;1.00
24904;DHT22;12960;50.322;11.124;2022-07-04T03:56:57;15.30;99.90
24904;DHT22;12960;50.322;11.124;2022-07-04T03:57:58;15.30;99.90
24904;DHT22;12960;50.322;11.124;2022-07-04T03:58:59;15.30;99.90
24904;DHT22;12960;50.322;11.124;2022-07-04T04:00:07;15.30;99.90
24904;DHT22;12960;50.322;11.124;2022-07-04T04:01:10;15.30;99.90
24904;DHT22;12960;50.322;11.124;2022-07-04T04:02:11;15.40;99.90
24904;DHT22;12960;50.322;11.124;2022-07-04T04:03:12;15.50;99.90
24904;DHT22;12960;50.322;11.124;2022-07-04T04:04:32;15.50;99.90
24904;DHT22;12960;50.322;11.124;2022-07-04T04:05:51;15.60;99.90
24904;DHT22;12960;50.322;11.124;2022-07-04T04:06:52;15.90;99.90
24904;DHT22;12960;50.322;11.124;2022-07-04T04:07:55;16.10;82.40
24904;DHT22;12960;50.322;11.124;2022-07-04T04:08:56;16.20;1.00
24904;DHT22;12960;50.322;11.124;2022-07-04T04:10:00;16.30;1.00
24904;DHT22;12960;50.322;11.124;2022-07-04T04:11:01;16.10;1.00
24904;DHT22;12960;50.322;11.124;2022-07-04T04:12:02;16.00;20.40
24904;DHT22;12960;50.322;11.124;2022-07-04T04:13:03;15.90;95.70
24904;DHT22;12960;50.322;11.124;2022-07-04T04:14:04;15.80;99.90
24904;DHT22;12960;50.322;11.124;2022-07-04T04:15:06;15.70;99.90
24904;DHT22;12960;50.322;11.124;2022-07-04T04:16:07;15.60;99.90
24904;DHT22;12960;50.322;11.124;2022-07-04T04:17:08;15.60;99.90
24904;DHT22;12960;50.322;11.124;2022-07-04T04:18:09;15.50;99.90
24904;DHT22;12960;50.322;11.124;2022-07-04T04:19:10;15.50;99.90
24904;DHT22;12960;50.322;11.124;2022-07-04T04:20:11;15.50;99.90
24904;DHT22;12960;50.322;11.124;2022-07-04T04:21:21;15.50;99.90
24904;DHT22;12960;50.322;11.124;2022-07-04T04:22:22;15.50;99.90
24904;DHT22;12960;50.322;11.124;2022-07-04T04:23:23;15.50;99.90
24904;DHT22;12960;50.322;11.124;2022-07-04T04:24:24;15.50;99.90
24904;DHT22;12960;50.322;11.124;2022-07-04T04:25:25;15.60;99.90
24904;DHT22;12960;50.322;11.124;2022-07-04T04:26:30;15.60;99.90
24904;DHT22;12960;50.322;11.124;2022-07-04T04:27:31;15.70;99.90
24904;DHT22;12960;50.322;11.124;2022-07-04T04:28:32;15.70;99.90
24904;DHT22;12960;50.322;11.124;2022-07-04T04:29:36;15.80;99.90
24904;DHT22;12960;50.322;11.124;2022-07-04T04:30:37;15.90;99.90
24904;DHT22;12960;50.322;11.124;2022-07-04T04:31:38;16.00;99.90
24904;DHT22;12960;50.322;11.124;2022-07-04T04:32:39;16.00;99.90
24904;DHT22;12960;50.322;11.124;2022-07-04T04:33:40;16.00;99.90
24904;DHT22;12960;50.322;11.124;2022-07-04T04:34:42;16.10;99.90
24904;DHT22;12960;50.322;11.124;2022-07-04T04:35:43;16.00;99.90
24904;DHT22;12960;50.322;11.124;2022-07-04T04:36:44;16.10;99.90
24904;DHT22;12960;50.322;11.124;2022-07-04T04:37:45;16.20;99.90
24904;DHT22;12960;50.322;11.124;2022-07-04T04:38:46;16.30;99.90
24904;DHT22;12960;50.322;11.124;2022-07-04T04:39:47;16.30;99.90
24904;DHT22;12960;50.322;11.124;2022-07-04T04:40:48;16.40;99.90
24904;DHT22;12960;50.322;11.124;2022-07-04T04:41:49;16.40;93.00
24904;DHT22;12960;50.322;11.124;2022-07-04T04:42:50;16.50;53.50
24904;DHT22;12960;50.322;11.124;2022-07-04T04:43:51;16.60;13.80
24904;DHT22;12960;50.322;11.124;2022-07-04T04:44:52;16.60;1.00
24904;DHT22;12960;50.322;11.124;2022-07-04T04:45:54;16.80;1.00
24904;DHT22;12960;50.322;11.124;2022-07-04T04:46:55;16.80;1.00
24904;DHT22;12960;50.322;11.124;2022-07-04T04:47:56;16.80;1.00
24904;DHT22;12960;50.322;11.124;2022-07-04T04:48:57;16.90;1.00
24904;DHT22;12960;50.322;11.124;2022-07-04T04:49:58;17.00;1.00
24904;DHT22;12960;50.322;11.124;2022-07-04T04:50:59;17.10;1.00
24904;DHT22;12960;50.322;11.124;2022-07-04T04:52:00;17.10;1.00
24904;DHT22;12960;50.322;11.124;2022-07-04T04:53:01;17.10;1.00
24904;DHT22;12960;50.322;11.124;2022-07-04T04:54:03;17.10;1.00
24904;DHT22;12960;50.322;11.124;2022-07-04T04:55:04;17.10;1.00
24904;DHT22;12960;50.322;11.124;2022-07-04T04:56:05;17.20;1.00
24904;DHT22;12960;50.322;11.124;2022-07-04T04:57:06;17.30;99.90
24904;DHT22;12960;50.322;11.124;2022-07-04T04:58:07;17.40;99.90
24904;DHT22;12960;50.322;11.124;2022-07-04T04:59:08;17.40;99.90
24904;DHT22;12960;50.322;11.124;2022-07-04T05:00:11;17.40;99.90
24904;DHT22;12960;50.322;11.124;2022-07-04T05:01:12;17.40;99.90
24904;DHT22;12960;50.322;11.124;2022-07-04T05:02:13;17.40;99.90
24904;DHT22;12960;50.322;11.124;2022-07-04T05:03:14;17.50;99.90
24904;DHT22;12960;50.322;11.124;2022-07-04T05:04:15;17.50;99.90
24904;DHT22;12960;50.322;11.124;2022-07-04T05:05:16;17.60;99.90
24904;DHT22;12960;50.322;11.124;2022-07-04T05:06:17;17.70;99.90
24904;DHT22;12960;50.322;11.124;2022-07-04T05:07:19;17.70;99.90
24904;DHT22;12960;50.322;11.124;2022-07-04T05:08:20;17.70;21.80
24904;DHT22;12960;50.322;11.124;2022-07-04T05:09:21;17.70;49.20
24904;DHT22;12960;50.322;11.124;2022-07-04T05:10:22;17.70;16.20
24904;DHT22;12960;50.322;11.124;2022-07-04T05:11:23;17.80;58.20
24904;DHT22;12960;50.322;11.124;2022-07-04T05:12:25;17.90;7.10
24904;DHT22;12960;50.322;11.124;2022-07-04T05:13:26;17.90;1.00
24904;DHT22;12960;50.322;11.124;2022-07-04T05:14:27;18.00;1.00
24904;DHT22;12960;50.322;11.124;2022-07-04T05:15:29;18.00;1.00
24904;DHT22;12960;50.322;11.124;2022-07-04T05:16:30;18.00;1.00
24904;DHT22;12960;50.322;11.124;2022-07-04T05:17:32;18.00;1.00
24904;DHT22;12960;50.322;11.124;2022-07-04T05:18:33;18.10;1.00
24904;DHT22;12960;50.322;11.124;2022-07-04T05:19:34;18.10;1.00
24904;DHT22;12960;50.322;11.124;2022-07-04T05:20:35;18.20;1.00
24904;DHT22;12960;50.322;11.124;2022-07-04T05:21:36;18.30;1.00
24904;DHT22;12960;50.322;11.124;2022-07-04T05:22:37;18.30;1.00
24904;DHT22;12960;50.322;11.124;2022-07-04T05:23:38;18.30;99.90
24904;DHT22;12960;50.322;11.124;2022-07-04T05:24:39;18.20;1.00
24904;DHT22;12960;50.322;11.124;2022-07-04T05:25:40;18.30;1.00
24904;DHT22;12960;50.322;11.124;2022-07-04T05:26:41;18.30;1.00
24904;DHT22;12960;50.322;11.124;2022-07-04T05:27:42;18.30;99.90
24904;DHT22;12960;50.322;11.124;2022-07-04T05:28:43;18.40;1.00
24904;DHT22;12960;50.322;11.124;2022-07-04T05:29:44;18.50;1.00
24904;DHT22;12960;50.322;11.124;2022-07-04T05:30:45;18.50;1.00
24904;DHT22;12960;50.322;11.124;2022-07-04T05:31:46;18.60;99.90
24904;DHT22;12960;50.322;11.124;2022-07-04T05:32:47;18.60;99.90
24904;DHT22;12960;50.322;11.124;2022-07-04T05:33:48;18.70;99.90
24904;DHT22;12960;50.322;11.124;2022-07-04T05:34:49;18.70;99.90
24904;DHT22;12960;50.322;11.124;2022-07-04T05:35:50;18.70;99.90
24904;DHT22;12960;50.322;11.124;2022-07-04T05:36:51;18.80;99.90
24904;DHT22;12960;50.322;11.124;2022-07-04T05:37:52;18.70;61.50
24904;DHT22;12960;50.322;11.124;2022-07-04T05:38:53;18.80;99.90
24904;DHT22;12960;50.322;11.124;2022-07-04T05:39:54;18.70;99.90
24904;DHT22;12960;50.322;11.124;2022-07-04T05:40:55;18.70;99.90
24904;DHT22;12960;50.322;11.124;2022-07-04T05:41:56;18.80;99.90
24904;DHT22;12960;50.322;11.124;2022-07-04T05:42:57;18.70;99.90
24904;DHT22;12960;50.322;11.124;2022-07-04T05:43:58;18.70;99.90
24904;DHT22;12960;50.322;11.124;2022-07-04T05:44:59;18.70;99.90
24904;DHT22;12960;50.322;11.124;2022-07-04T05:46:00;18.80;99.90
24904;DHT22;12960;50.322;11.124;2022-07-04T05:47:02;18.80;99.90
24904;DHT22;12960;50.322;11.124;2022-07-04T05:48:03;18.80;99.90
24904;DHT22;12960;50.322;11.124;2022-07-04T05:49:04;18.80;99.90
24904;DHT22;12960;50.322;11.124;2022-07-04T05:50:06;18.80;99.90
24904;DHT22;12960;50.322;11.124;2022-07-04T05:51:07;18.90;99.90
24904;DHT22;12960;50.322;11.124;2022-07-04T05:52:08;19.00;99.90
24904;DHT22;12960;50.322;11.124;2022-07-04T05:53:09;19.00;50.30
24904;DHT22;12960;50.322;11.124;2022-07-04T05:54:10;19.10;13.80
24904;DHT22;12960;50.322;11.124;2022-07-04T05:55:11;19.10;4.80
24904;DHT22;12960;50.322;11.124;2022-07-04T05:56:12;19.20;1.00
24904;DHT22;12960;50.322;11.124;2022-07-04T05:57:13;19.30;1.00
24904;DHT22;12960;50.322;11.124;2022-07-04T05:58:14;19.30;99.90
24904;DHT22;12960;50.322;11.124;2022-07-04T05:59:17;19.20;1.00
24904;DHT22;12960;50.322;11.124;2022-07-04T06:00:18;19.10;1.00
24904;DHT22;12960;50.322;11.124;2022-07-04T06:01:19;19.20;1.00
24904;DHT22;12960;50.322;11.124;2022-07-04T06:02:20;19.10;1.00
24904;DHT22;12960;50.322;11.124;2022-07-04T06:03:21;19.10;1.00
24904;DHT22;12960;50.322;11.124;2022-07-04T06:04:22;19.20;1.00
24904;DHT22;12960;50.322;11.124;2022-07-04T06:05:23;19.30;1.00
24904;DHT22;12960;50.322;11.124;2022-07-04T06:06:24;19.30;99.90
24904;DHT22;12960;50.322;11.124;2022-07-04T06:07:25;19.30;99.90
24904;DHT22;12960;50.322;11.124;2022-07-04T06:08:26;19.30;1.00
24904;DHT22;12960;50.322;11.124;2022-07-04T06:09:27;19.20;1.00
24904;DHT22;12960;50.322;11.124;2022-07-04T06:10:29;19.20;1.00
24904;DHT22;12960;50.322;11.124;2022-07-04T06:11:30;19.30;1.00
24904;DHT22;12960;50.322;11.124;2022-07-04T06:12:32;19.30;99.90
24904;DHT22;12960;50.322;11.124;2022-07-04T06:13:33;19.30;1.00
24904;DHT22;12960;50.322;11.124;2022-07-04T06:14:34;19.40;99.90
24904;DHT22;12960;50.322;11.124;2022-07-04T06:15:35;19.50;1.00
24904;DHT22;12960;50.322;11.124;2022-07-04T06:16:36;19.50;99.90
24904;DHT22;12960;50.322;11.124;2022-07-04T06:17:37;19.60;99.90
24904;DHT22;12960;50.322;11.124;2022-07-04T06:18:38;19.60;99.90
24904;DHT22;12960;50.322;11.124;2022-07-04T06:19:39;19.70;99.90
24904;DHT22;12960;50.322;11.124;2022-07-04T06:20:41;19.80;58.10
24904;DHT22;12960;50.322;11.124;2022-07-04T06:21:42;19.80;6.90
24904;DHT22;12960;50.322;11.124;2022-07-04T06:22:45;20.00;1.00
24904;DHT22;12960;50.322;11.124;2022-07-04T06:23:46;19.90;99.90
24904;DHT22;12960;50.322;11.124;2022-07-04T06:24:47;19.80;1.00
24904;DHT22;12960;50.322;11.124;2022-07-04T06:25:48;19.80;1.00
24904;DHT22;12960;50.322;11.124;2022-07-04T06:26:49;19.90;1.00
24904;DHT22;12960;50.322;11.124;2022-07-04T06:27:50;20.00;99.90
24904;DHT22;12960;50.322;11.124;2022-07-04T06:28:53;20.10;99.90